createdAt,value
2023-05-17T00:01:47.314Z,100349.91
2023-05-17T00:04:14.262Z,100354.83
2023-05-17T00:06:41.134Z,100356.08
2023-05-17T00:09:08.540Z,100353.58
2023-05-17T00:11:35.772Z,100358.58
2023-05-17T00:14:03.431Z,100356.02
2023-05-17T00:16:30.303Z,100357.45
2023-05-17T00:18:57.365Z,100356.91
2023-05-17T00:21:24.500Z,100357.52
2023-05-17T00:23:51.371Z,100363.57
2023-05-17T00:26:18.234Z,100364.23
2023-05-17T00:28:45.354Z,100366.13
2023-05-17T00:31:14.458Z,100371.00
2023-05-17T00:33:41.366Z,100370.17
2023-05-17T00:36:08.329Z,100368.30
2023-05-17T00:38:35.480Z,100365.73
2023-05-17T00:41:07.404Z,100364.01
2023-05-17T00:43:35.174Z,100364.34
2023-05-17T00:46:02.146Z,100363.29
2023-05-17T00:48:29.335Z,100357.05
2023-05-17T00:50:56.483Z,100361.13
2023-05-17T00:53:23.623Z,100359.58
2023-05-17T00:55:50.532Z,100358.63
2023-05-17T00:58:17.652Z,100359.90
2023-05-17T01:00:46.504Z,100359.73
2023-05-17T01:03:13.914Z,100357.36
2023-05-17T01:05:41.714Z,100356.23
2023-05-17T01:08:08.840Z,100358.23
2023-05-17T01:10:39.084Z,100360.03
2023-05-17T01:13:29.125Z,100360.90
2023-05-17T01:16:09.069Z,100357.35
2023-05-17T01:18:40.316Z,100355.05
2023-05-17T01:21:35.512Z,100359.20
2023-05-17T01:24:26.848Z,100362.91
2023-05-17T01:26:54.159Z,100367.19
2023-05-17T01:29:27.245Z,100367.56
2023-05-17T01:31:56.285Z,100368.80
2023-05-17T01:34:25.874Z,100366.33
2023-05-17T01:36:52.723Z,100363.66
2023-05-17T01:39:19.650Z,100355.63
2023-05-17T01:41:55.115Z,100352.73
2023-05-17T01:44:47.224Z,100353.52
2023-05-17T01:47:24.166Z,100354.26
2023-05-17T01:49:57.778Z,100356.71
2023-05-17T01:52:29.307Z,100356.77
2023-05-17T01:55:10.358Z,100357.69
2023-05-17T01:57:37.676Z,100358.77
2023-05-17T02:00:09.682Z,100362.27
2023-05-17T02:02:45.017Z,100364.37
2023-05-17T02:05:12.135Z,100366.34
2023-05-17T02:07:41.349Z,100368.38
2023-05-17T02:10:13.689Z,100371.25
2023-05-17T02:12:43.429Z,100372.70
2023-05-17T02:15:11.503Z,100371.11
2023-05-17T02:17:45.180Z,100374.15
2023-05-17T02:20:12.448Z,100379.20
2023-05-17T02:22:39.801Z,100377.65
2023-05-17T02:25:12.586Z,100381.80
2023-05-17T02:27:40.338Z,100387.05
2023-05-17T02:30:09.973Z,100391.61
2023-05-17T02:32:38.363Z,100390.76
2023-05-17T02:35:07.108Z,100393.30
2023-05-17T02:37:34.168Z,100399.59
2023-05-17T02:40:01.028Z,100404.64
2023-05-17T02:42:27.934Z,100404.59
2023-05-17T02:44:57.437Z,100404.61
2023-05-17T02:47:24.311Z,100407.45
2023-05-17T02:49:51.637Z,100407.35
2023-05-17T02:52:18.474Z,100407.29
2023-05-17T02:54:45.420Z,100410.20
2023-05-17T02:57:12.615Z,100409.27
2023-05-17T02:59:39.434Z,100414.11
2023-05-17T03:02:06.791Z,100421.02
2023-05-17T03:04:33.691Z,100420.14
2023-05-17T03:07:00.562Z,100425.21
2023-05-17T03:09:29.756Z,100428.48
2023-05-17T03:11:57.274Z,100433.25
2023-05-17T03:14:27.697Z,100433.77
2023-05-17T03:16:54.809Z,100436.58
2023-05-17T03:19:23.018Z,100437.52
2023-05-17T03:21:51.567Z,100438.69
2023-05-17T03:24:23.716Z,100442.79
2023-05-17T03:26:51.251Z,100445.02
2023-05-17T03:29:18.165Z,100441.26
2023-05-17T03:31:45.481Z,100445.57
2023-05-17T03:34:13.255Z,100446.41
2023-05-17T03:36:40.812Z,100447.41
2023-05-17T03:39:08.463Z,100450.35
2023-05-17T03:42:14.253Z,100450.13
2023-05-17T03:44:42.000Z,100449.72
2023-05-17T03:47:08.889Z,100450.73
2023-05-17T03:49:36.112Z,100455.77
2023-05-17T03:52:04.236Z,100459.92
2023-05-17T03:54:31.561Z,100461.17
2023-05-17T03:56:58.391Z,100466.27
2023-05-17T03:59:25.414Z,100472.67
2023-05-17T04:01:52.330Z,100473.34
2023-05-17T04:04:19.390Z,100472.61
2023-05-17T04:06:46.611Z,100472.41
2023-05-17T04:09:15.058Z,100471.98
2023-05-17T04:11:42.916Z,100474.23
2023-05-17T04:14:17.562Z,100478.08
2023-05-17T04:16:44.503Z,100474.23
2023-05-17T04:19:11.352Z,100474.64
2023-05-17T04:21:39.980Z,100473.05
2023-05-17T04:24:07.167Z,100479.72
2023-05-17T04:26:35.156Z,100480.98
2023-05-17T04:29:03.198Z,100482.17
2023-05-17T04:31:31.566Z,100481.39
2023-05-17T04:33:58.456Z,100480.15
2023-05-17T04:36:26.000Z,100478.94
2023-05-17T04:38:53.992Z,100483.39
2023-05-17T04:41:24.245Z,100486.23
2023-05-17T04:43:51.512Z,100487.15
2023-05-17T04:46:22.658Z,100490.15
2023-05-17T04:48:49.842Z,100492.45
2023-05-17T04:51:17.809Z,100491.16
2023-05-17T04:53:45.295Z,100495.23
2023-05-17T04:56:16.251Z,100497.10
2023-05-17T04:58:43.606Z,100497.85
2023-05-17T05:01:11.720Z,100501.54
2023-05-17T05:03:39.778Z,100499.73
2023-05-17T05:06:07.812Z,100501.52
2023-05-17T05:08:35.182Z,100503.95
2023-05-17T05:11:02.562Z,100503.89
2023-05-17T05:13:29.992Z,100504.77
2023-05-17T05:15:56.922Z,100504.22
2023-05-17T05:18:24.809Z,100507.34
2023-05-17T05:20:52.127Z,100511.73
2023-05-17T05:23:19.273Z,100510.90
2023-05-17T05:25:47.852Z,100509.42
2023-05-17T05:28:15.487Z,100513.59
2023-05-17T05:30:42.937Z,100516.73
2023-05-17T05:33:11.260Z,100519.30
2023-05-17T05:35:38.522Z,100520.76
2023-05-17T05:38:05.427Z,100521.05
2023-05-17T05:40:33.213Z,100523.53
2023-05-17T05:43:00.739Z,100522.16
2023-05-17T05:45:27.743Z,100523.29
2023-05-17T05:47:57.522Z,100529.38
2023-05-17T05:50:24.725Z,100527.03
2023-05-17T05:52:58.093Z,100520.48
2023-05-17T05:55:34.229Z,100522.56
2023-05-17T05:58:01.271Z,100521.40
2023-05-17T06:00:28.861Z,100520.58
2023-05-17T06:02:56.990Z,100518.73
2023-05-17T06:05:23.948Z,100515.67
2023-05-17T06:07:50.958Z,100515.84
2023-05-17T06:10:17.894Z,100518.54
2023-05-17T06:12:45.442Z,100518.40
2023-05-17T06:15:12.353Z,100519.55
2023-05-17T06:17:41.762Z,100515.95
2023-05-17T06:20:09.329Z,100512.23
2023-05-17T06:22:36.560Z,100513.75
2023-05-17T06:25:04.614Z,100513.94
2023-05-17T06:27:35.052Z,100514.35
2023-05-17T06:30:05.528Z,100514.02
2023-05-17T06:32:34.901Z,100515.64
2023-05-17T06:35:02.073Z,100507.52
2023-05-17T06:37:29.344Z,100509.29
2023-05-17T06:40:15.547Z,100506.07
2023-05-17T06:42:44.222Z,100506.53
2023-05-17T06:45:12.576Z,100505.00
2023-05-17T06:47:39.864Z,100505.92
2023-05-17T06:50:08.351Z,100508.77
2023-05-17T06:52:35.761Z,100507.48
2023-05-17T06:55:03.328Z,100510.59
2023-05-17T06:57:30.843Z,100506.84
2023-05-17T06:59:57.936Z,100508.27
2023-05-17T07:02:24.894Z,100510.36
2023-05-17T07:04:51.891Z,100505.33
2023-05-17T07:07:19.115Z,100503.14
2023-05-17T07:09:46.101Z,100496.92
2023-05-17T07:12:13.167Z,100502.29
2023-05-17T07:14:40.400Z,100501.63
2023-05-17T07:17:07.268Z,100505.46
2023-05-17T07:19:34.258Z,100504.38
2023-05-17T07:22:01.449Z,100507.28
2023-05-17T07:24:28.497Z,100507.85
2023-05-17T07:26:55.747Z,100500.21
2023-05-17T07:29:22.772Z,100503.05
2023-05-17T07:31:51.230Z,100506.34
2023-05-17T07:34:18.112Z,100502.73
2023-05-17T07:36:45.436Z,100502.38
2023-05-17T07:39:12.611Z,100498.08
2023-05-17T07:41:39.479Z,100503.43
2023-05-17T07:44:06.492Z,100498.87
2023-05-17T07:46:33.772Z,100499.98
2023-05-17T07:49:03.869Z,100498.91
2023-05-17T07:51:31.436Z,100502.88
2023-05-17T07:53:58.414Z,100500.80
2023-05-17T07:56:25.461Z,100498.86
2023-05-17T07:58:57.621Z,100497.94
2023-05-17T08:01:24.514Z,100500.66
2023-05-17T08:03:52.917Z,100499.47
2023-05-17T08:06:19.998Z,100499.20
2023-05-17T08:08:47.056Z,100496.97
2023-05-17T08:11:14.507Z,100499.80
2023-05-17T08:13:41.591Z,100496.97
2023-05-17T08:16:14.251Z,100497.49
2023-05-17T08:18:42.881Z,100499.71
2023-05-17T08:21:10.702Z,100496.59
2023-05-17T08:23:37.552Z,100493.90
2023-05-17T08:26:04.479Z,100495.67
2023-05-17T08:28:31.521Z,100494.30
2023-05-17T08:30:58.775Z,100496.11
2023-05-17T08:33:27.063Z,100494.85
2023-05-17T08:35:54.821Z,100489.54
2023-05-17T08:38:21.825Z,100487.61
2023-05-17T08:40:55.735Z,100484.42
2023-05-17T08:43:25.251Z,100479.61
2023-05-17T08:45:57.137Z,100485.11
2023-05-17T08:48:25.903Z,100481.92
2023-05-17T08:50:53.697Z,100482.05
2023-05-17T08:53:21.506Z,100474.76
2023-05-17T08:55:49.028Z,100470.81
2023-05-17T08:58:18.720Z,100468.02
2023-05-17T09:00:46.668Z,100464.79
2023-05-17T09:03:15.401Z,100463.75
2023-05-17T09:05:42.896Z,100459.13
2023-05-17T09:08:13.440Z,100456.22
2023-05-17T09:10:47.656Z,100458.05
2023-05-17T09:13:15.146Z,100459.36
2023-05-17T09:15:47.071Z,100457.43
2023-05-17T09:18:16.276Z,100451.80
2023-05-17T09:20:49.978Z,100447.98
2023-05-17T09:23:18.874Z,100439.98
2023-05-17T09:25:47.597Z,100434.34
2023-05-17T09:28:15.138Z,100437.34
2023-05-17T09:30:42.781Z,100436.33
2023-05-17T09:33:10.911Z,100430.91
2023-05-17T09:35:38.256Z,100432.48
2023-05-17T09:38:07.414Z,100433.73
2023-05-17T09:40:42.146Z,100429.26
2023-05-17T09:43:10.270Z,100428.58
2023-05-17T09:45:37.452Z,100429.35
2023-05-17T09:48:17.780Z,100424.64
2023-05-17T09:50:45.960Z,100425.15
2023-05-17T09:53:25.784Z,100422.27
2023-05-17T09:55:54.174Z,100420.48
2023-05-17T09:58:21.645Z,100421.33
2023-05-17T10:00:54.621Z,100417.29
2023-05-17T10:03:22.079Z,100418.92
2023-05-17T10:05:51.023Z,100419.98
2023-05-17T10:08:19.843Z,100420.08
2023-05-17T10:10:46.754Z,100420.54
2023-05-17T10:13:13.678Z,100416.42
2023-05-17T10:15:40.789Z,100416.37
2023-05-17T10:18:08.679Z,100414.42
2023-05-17T10:20:36.506Z,100412.86
2023-05-17T10:23:05.779Z,100411.23
2023-05-17T10:25:33.115Z,100411.14
2023-05-17T10:28:00.334Z,100411.10
2023-05-17T10:30:28.003Z,100408.70
2023-05-17T10:32:55.517Z,100410.12
2023-05-17T10:35:22.647Z,100403.33
2023-05-17T10:37:50.219Z,100397.94
2023-05-17T10:40:17.145Z,100402.81
2023-05-17T10:42:54.036Z,100399.45
2023-05-17T10:45:23.347Z,100396.59
2023-05-17T10:47:54.166Z,100394.23
2023-05-17T10:50:25.678Z,100393.36
2023-05-17T10:52:53.113Z,100390.20
2023-05-17T10:55:24.625Z,100390.15
2023-05-17T10:58:10.282Z,100387.21
2023-05-17T11:00:43.613Z,100389.06
2023-05-17T11:03:17.538Z,100389.73
2023-05-17T11:06:06.419Z,100387.29
2023-05-17T11:08:34.060Z,100382.17
2023-05-17T11:11:16.948Z,100381.05
2023-05-17T11:13:52.218Z,100377.12
2023-05-17T11:16:34.300Z,100374.73
2023-05-17T11:19:08.930Z,100373.95
2023-05-17T11:21:36.193Z,100368.05
2023-05-17T11:24:03.904Z,100368.16
2023-05-17T11:26:37.070Z,100368.52
2023-05-17T11:29:08.315Z,100365.95
2023-05-17T11:31:36.053Z,100369.10
2023-05-17T11:34:03.671Z,100364.37
2023-05-17T11:36:31.788Z,100359.39
2023-05-17T11:39:15.361Z,100352.20
2023-05-17T11:41:52.431Z,100351.86
2023-05-17T11:44:28.973Z,100347.54
2023-05-17T11:47:06.532Z,100340.73
2023-05-17T11:49:37.040Z,100338.74
2023-05-17T11:52:07.547Z,100339.40
2023-05-17T11:54:37.892Z,100340.58
2023-05-17T11:57:05.029Z,100336.05
2023-05-17T11:59:39.574Z,100329.04
2023-05-17T12:02:07.434Z,100324.53
2023-05-17T12:04:36.868Z,100318.29
2023-05-17T12:07:03.895Z,100314.59
2023-05-17T12:09:31.907Z,100312.70
2023-05-17T12:12:04.242Z,100311.02
2023-05-17T12:14:31.418Z,100306.66
2023-05-17T12:17:00.829Z,100311.33
2023-05-17T12:19:29.369Z,100310.27
2023-05-17T12:22:13.273Z,100301.52
2023-05-17T12:24:41.711Z,100299.36
2023-05-17T12:27:08.888Z,100296.05
2023-05-17T12:29:36.302Z,100292.64
2023-05-17T12:32:03.619Z,100290.09
2023-05-17T12:34:30.613Z,100290.01
2023-05-17T12:36:57.537Z,100296.05
2023-05-17T12:39:24.554Z,100295.30
2023-05-17T12:41:51.924Z,100289.65
2023-05-17T12:44:22.140Z,100292.50
2023-05-17T12:46:53.450Z,100287.23
2023-05-17T12:49:23.309Z,100288.75
2023-05-17T12:51:50.351Z,100291.09
2023-05-17T12:54:23.521Z,100292.52
2023-05-17T12:56:50.950Z,100293.61
2023-05-17T12:59:18.419Z,100291.70
2023-05-17T13:01:50.119Z,100287.33
2023-05-17T13:04:18.066Z,100286.66
2023-05-17T13:06:52.107Z,100285.34
2023-05-17T13:09:20.617Z,100282.73
2023-05-17T13:11:56.074Z,100285.02
2023-05-17T13:14:45.694Z,100281.21
2023-05-17T13:17:23.501Z,100276.31
2023-05-17T13:19:50.557Z,100279.42
2023-05-17T13:22:18.026Z,100278.51
2023-05-17T13:24:45.147Z,100280.81
2023-05-17T13:27:17.338Z,100273.26
2023-05-17T13:29:45.676Z,100273.08
2023-05-17T13:32:13.161Z,100274.98
2023-05-17T13:34:40.711Z,100274.42
2023-05-17T13:37:11.501Z,100273.22
2023-05-17T13:39:40.576Z,100272.44
2023-05-17T13:42:07.778Z,100272.73
2023-05-17T13:44:34.834Z,100273.69
2023-05-17T13:47:01.697Z,100273.49
2023-05-17T13:49:28.975Z,100271.45
2023-05-17T13:51:56.202Z,100266.34
2023-05-17T13:54:23.597Z,100265.16
2023-05-17T13:56:50.663Z,100265.10
2023-05-17T13:59:18.171Z,100263.15
2023-05-17T14:01:45.311Z,100259.45
2023-05-17T14:04:12.352Z,100262.29
2023-05-17T14:06:41.006Z,100258.79
2023-05-17T14:09:07.999Z,100262.79
2023-05-17T14:11:35.114Z,100263.46
2023-05-17T14:14:03.612Z,100261.92
2023-05-17T14:16:30.646Z,100262.59
2023-05-17T14:18:57.667Z,100256.21
2023-05-17T14:21:24.828Z,100252.13
2023-05-17T14:23:52.022Z,100250.25
2023-05-17T14:26:18.922Z,100250.39
2023-05-17T14:28:51.371Z,100248.91
2023-05-17T14:31:18.217Z,100245.77
2023-05-17T14:33:45.183Z,100247.70
2023-05-17T14:36:14.032Z,100252.02
2023-05-17T14:38:41.476Z,100248.94
2023-05-17T14:41:08.474Z,100251.30
2023-05-17T14:43:36.171Z,100246.55
2023-05-17T14:46:03.462Z,100243.65
2023-05-17T14:48:36.434Z,100246.16
2023-05-17T14:51:03.603Z,100246.09
2023-05-17T14:53:31.514Z,100246.61
2023-05-17T14:55:58.717Z,100247.61
2023-05-17T14:58:25.994Z,100244.79
2023-05-17T15:01:05.222Z,100245.00
2023-05-17T15:03:34.468Z,100238.28
2023-05-17T15:06:03.388Z,100247.02
2023-05-17T15:08:35.464Z,100246.08
2023-05-17T15:11:02.457Z,100249.19
2023-05-17T15:13:29.850Z,100252.02
2023-05-17T15:15:56.699Z,100254.66
2023-05-17T15:18:23.688Z,100249.64
2023-05-17T15:20:51.309Z,100244.59
2023-05-17T15:23:23.433Z,100245.35
2023-05-17T15:25:50.753Z,100248.52
2023-05-17T15:28:20.300Z,100248.55
2023-05-17T15:30:47.326Z,100246.73
2023-05-17T15:33:14.621Z,100245.73
2023-05-17T15:35:42.763Z,100245.15
2023-05-17T15:38:10.479Z,100248.34
2023-05-17T15:40:38.172Z,100246.73
2023-05-17T15:43:05.027Z,100247.16
2023-05-17T15:45:32.341Z,100248.19
2023-05-17T15:48:01.378Z,100248.40
2023-05-17T15:50:33.650Z,100249.80
2023-05-17T15:53:02.447Z,100247.63
2023-05-17T15:55:29.759Z,100251.59
2023-05-17T15:57:56.878Z,100247.75
2023-05-17T16:00:23.988Z,100249.39
2023-05-17T16:02:51.156Z,100248.19
2023-05-17T16:05:18.176Z,100248.75
2023-05-17T16:07:45.921Z,100251.48
2023-05-17T16:10:18.140Z,100248.52
2023-05-17T16:12:46.975Z,100255.99
2023-05-17T16:15:13.962Z,100250.73
2023-05-17T16:17:41.208Z,100246.45
2023-05-17T16:20:08.671Z,100247.44
2023-05-17T16:22:36.741Z,100248.79
2023-05-17T16:25:05.751Z,100248.55
2023-05-17T16:27:32.827Z,100252.05
2023-05-17T16:29:59.697Z,100256.70
2023-05-17T16:32:26.628Z,100256.59
2023-05-17T16:34:53.556Z,100259.67
2023-05-17T16:37:21.110Z,100258.85
2023-05-17T16:39:48.097Z,100262.76
2023-05-17T16:42:15.172Z,100263.70
2023-05-17T16:44:42.087Z,100266.81
2023-05-17T16:47:09.218Z,100265.86
2023-05-17T16:49:36.792Z,100267.84
2023-05-17T16:52:03.946Z,100271.76
2023-05-17T16:54:33.278Z,100274.79
2023-05-17T16:57:01.605Z,100277.17
2023-05-17T16:59:28.829Z,100281.42
2023-05-17T17:01:56.066Z,100277.73
2023-05-17T17:04:23.392Z,100276.94
2023-05-17T17:06:51.105Z,100278.48
2023-05-17T17:09:28.400Z,100279.50
2023-05-17T17:11:55.633Z,100283.05
2023-05-17T17:14:24.768Z,100284.27
2023-05-17T17:16:51.778Z,100283.21
2023-05-17T17:19:19.041Z,100284.73
2023-05-17T17:21:46.599Z,100287.23
2023-05-17T17:24:13.563Z,100287.04
2023-05-17T17:26:40.594Z,100291.73
2023-05-17T17:29:07.913Z,100295.40
2023-05-17T17:31:35.148Z,100296.61
2023-05-17T17:34:02.229Z,100296.31
2023-05-17T17:36:29.928Z,100297.47
2023-05-17T17:38:56.859Z,100302.09
2023-05-17T17:41:23.949Z,100304.16
2023-05-17T17:43:50.877Z,100302.24
2023-05-17T17:46:18.183Z,100301.94
2023-05-17T17:48:45.161Z,100300.58
2023-05-17T17:51:11.941Z,100300.71
2023-05-17T17:53:40.844Z,100300.92
2023-05-17T17:56:08.180Z,100300.91
2023-05-17T17:58:36.149Z,100299.63
2023-05-17T18:01:08.298Z,100300.23
2023-05-17T18:03:35.484Z,100300.89
2023-05-17T18:06:04.118Z,100299.06
2023-05-17T18:08:31.567Z,100300.92
2023-05-17T18:10:58.460Z,100299.92
2023-05-17T18:13:25.925Z,100295.36
2023-05-17T18:15:54.247Z,100298.42
2023-05-17T18:18:26.480Z,100301.52
2023-05-17T18:20:53.367Z,100303.11
2023-05-17T18:23:21.264Z,100304.32
2023-05-17T18:25:48.609Z,100298.27
2023-05-17T18:28:18.241Z,100303.29
2023-05-17T18:30:52.387Z,100299.23
2023-05-17T18:33:19.356Z,100299.67
2023-05-17T18:35:46.465Z,100297.02
2023-05-17T18:38:13.441Z,100295.59
2023-05-17T18:40:40.428Z,100296.48
2023-05-17T18:43:07.464Z,100291.70
2023-05-17T18:45:35.979Z,100294.30
2023-05-17T18:48:03.406Z,100301.31
2023-05-17T18:50:32.047Z,100302.52
2023-05-17T18:53:01.957Z,100301.01
2023-05-17T18:55:34.164Z,100297.25
2023-05-17T18:58:01.203Z,100294.49
2023-05-17T19:00:28.398Z,100294.89
2023-05-17T19:02:55.716Z,100297.23
2023-05-17T19:05:23.169Z,100297.79
2023-05-17T19:07:50.153Z,100299.08
2023-05-17T19:10:22.303Z,100296.67
2023-05-17T19:12:49.383Z,100297.55
2023-05-17T19:15:16.362Z,100298.09
2023-05-17T19:17:43.804Z,100293.04
2023-05-17T19:20:11.351Z,100289.38
2023-05-17T19:22:38.471Z,100293.77
2023-05-17T19:25:06.503Z,100292.42
2023-05-17T19:27:33.964Z,100291.33
2023-05-17T19:30:01.366Z,100289.30
2023-05-17T19:32:32.435Z,100291.48
2023-05-17T19:35:00.731Z,100294.10
2023-05-17T19:37:28.076Z,100294.15
2023-05-17T19:39:55.466Z,100289.23
2023-05-17T19:42:23.091Z,100290.75
2023-05-17T19:44:50.187Z,100289.29
2023-05-17T19:47:17.175Z,100286.08
2023-05-17T19:49:44.289Z,100290.02
2023-05-17T19:52:11.815Z,100292.84
2023-05-17T19:54:38.830Z,100291.39
2023-05-17T19:57:06.021Z,100291.25
2023-05-17T19:59:33.659Z,100293.98
2023-05-17T20:02:00.934Z,100294.38
2023-05-17T20:04:27.980Z,100293.46
2023-05-17T20:06:54.931Z,100292.52
2023-05-17T20:09:24.594Z,100294.77
2023-05-17T20:11:54.269Z,100297.97
2023-05-17T20:14:27.403Z,100292.89
2023-05-17T20:16:54.456Z,100292.77
2023-05-17T20:19:21.677Z,100293.20
2023-05-17T20:21:48.993Z,100291.07
2023-05-17T20:24:15.946Z,100289.20
2023-05-17T20:26:45.951Z,100290.62
2023-05-17T20:29:12.976Z,100289.67
2023-05-17T20:31:40.275Z,100293.75
2023-05-17T20:34:07.673Z,100293.42
2023-05-17T20:36:40.469Z,100295.13
2023-05-17T20:39:07.485Z,100294.46
2023-05-17T20:41:34.674Z,100294.06
2023-05-17T20:44:01.882Z,100292.66
2023-05-17T20:46:29.432Z,100292.14
2023-05-17T20:48:57.629Z,100292.80
2023-05-17T20:51:26.505Z,100295.92
2023-05-17T20:53:53.832Z,100293.72
2023-05-17T20:56:20.681Z,100291.66
2023-05-17T20:58:48.074Z,100296.44
2023-05-17T21:01:14.986Z,100298.71
2023-05-17T21:03:42.696Z,100292.53
2023-05-17T21:06:10.294Z,100293.26
2023-05-17T21:08:37.881Z,100297.73
2023-05-17T21:11:05.138Z,100297.40
2023-05-17T21:13:32.396Z,100294.69
2023-05-17T21:15:59.333Z,100299.02
2023-05-17T21:18:26.215Z,100299.16
2023-05-17T21:20:59.608Z,100297.23
2023-05-17T21:23:26.507Z,100294.56
2023-05-17T21:25:58.683Z,100295.50
2023-05-17T21:28:25.683Z,100293.17
2023-05-17T21:30:52.735Z,100297.02
2023-05-17T21:33:19.782Z,100295.65
2023-05-17T21:35:46.753Z,100296.52
2023-05-17T21:38:18.916Z,100298.29
2023-05-17T21:40:45.906Z,100297.92
2023-05-17T21:43:12.886Z,100301.05
2023-05-17T21:45:41.275Z,100298.85
2023-05-17T21:48:08.200Z,100297.23
2023-05-17T21:50:35.390Z,100297.23
2023-05-17T21:53:02.257Z,100298.42
2023-05-17T21:55:36.564Z,100299.27
2023-05-17T21:58:15.766Z,100297.17
2023-05-17T22:00:43.026Z,100294.70
2023-05-17T22:03:10.243Z,100289.80
2023-05-17T22:05:43.812Z,100291.28
2023-05-17T22:08:10.862Z,100289.67
2023-05-17T22:10:40.020Z,100286.63
2023-05-17T22:13:11.609Z,100285.86
2023-05-17T22:15:38.554Z,100288.08
2023-05-17T22:18:05.613Z,100285.44
2023-05-17T22:20:32.971Z,100283.09
2023-05-17T22:23:00.308Z,100281.47
2023-05-17T22:25:27.155Z,100283.95
2023-05-17T22:28:01.712Z,100280.88
2023-05-17T22:30:34.129Z,100280.02
2023-05-17T22:33:02.564Z,100276.89
2023-05-17T22:35:29.613Z,100278.63
2023-05-17T22:38:02.399Z,100274.52
2023-05-17T22:40:29.652Z,100277.65
2023-05-17T22:42:58.269Z,100279.82
2023-05-17T22:45:32.428Z,100279.46
2023-05-17T22:48:02.266Z,100277.45
2023-05-17T22:50:30.106Z,100275.13
2023-05-17T22:53:00.615Z,100276.55
2023-05-17T22:55:38.634Z,100276.25
2023-05-17T22:58:05.609Z,100281.29
2023-05-17T23:00:32.936Z,100281.74
2023-05-17T23:02:59.859Z,100281.70
2023-05-17T23:05:26.899Z,100281.88
2023-05-17T23:07:54.964Z,100282.08
2023-05-17T23:10:21.862Z,100284.30
2023-05-17T23:12:50.220Z,100282.84
2023-05-17T23:15:19.147Z,100282.83
2023-05-17T23:17:46.810Z,100277.13
2023-05-17T23:20:13.914Z,100282.30
2023-05-17T23:22:40.881Z,100284.19
2023-05-17T23:25:08.637Z,100281.85
2023-05-17T23:27:35.654Z,100282.99
2023-05-17T23:30:03.966Z,100288.17
2023-05-17T23:32:34.433Z,100290.23
2023-05-17T23:35:04.770Z,100292.73
2023-05-17T23:37:35.566Z,100289.83
2023-05-17T23:40:11.623Z,100290.19
2023-05-17T23:42:39.418Z,100291.95
2023-05-17T23:45:07.330Z,100292.46
2023-05-17T23:47:34.574Z,100288.21
2023-05-17T23:50:02.766Z,100292.11
2023-05-17T23:52:31.852Z,100294.26
2023-05-17T23:54:58.783Z,100290.25
2023-05-17T23:57:25.806Z,100292.52
2023-05-17T23:59:52.700Z,100293.19
